2NY4 weather

Byron Airpark
Byron, New York, United States

Public forecast

Using degrees Fahrenheit for public forecast. Weather courtesy of forecast.io.

METAR (pilot weather report)

Closest report is Greater Rochester International Airport, 16.8 nm (31.1 km) E. Retrieved 2019/06/18 21:54 UTC (21 minutes ago):

KROC 182154Z 02010KT 10SM FEW030 FEW100 SCT180 23/12 A2989 RMK AO2 SLP121 T02330117

TAF (pilot weather forecast)

Closest forecast is Greater Rochester International Airport, 16.8 nm (31.1 km) E. Retrieved 2019/06/18 18:42 UTC (4 hours ago):

TAF KROC 181739Z 1818/1918 03008KT P6SM BKN040 FM182200 03006KT P6SM SCT040 FM190000 03006KT P6SM SCT200 FM190600 VRB03KT P6SM SCT150